Rechercher aéroport 
image banner adimage banner ad
image banner ad

FYKUB - Kub

Situé à , Namibia

ICAO - , IATA -

Données fournies par Airmate  

Information générale

Coordonnées: S24°12'56" E17°29'36"
Élévation : 3946 feet MSL.
 
Voir autres Aéroports à Hardap

Données opérationnelles

Accessible au public
Heure actuelle UTC:
Heure actuelle locale:
Météo à : FYML - Mariental ( 61 km )
METAR: FYML 260000Z AUTO 14001KT //// // ////// 28/15 Q1016
Voir NOTAMs / SUP AIP / TFR affectant cet aéroport [VIEW]
Fréquences de communication: [VIEW]

Pistes:

Coordonnées de l'aéroport

Adresse: Namibia

Vue satellite de FYKUB